Time;durP1;ratioP1;P1;durP2;ratioP2;P2;SDS_P1;SDS_P2;PMS_P1;PMS_P2;Temp;Humidity;BMP_temperature;BMP_pressure;BME280_temperature;BME280_humidity;BME280_pressure;Samples;Min_cycle;Max_cycle;Signal;HPM_P1;HPM_P2
2021/08/27 00:02:21;;;;;;;4.42;2.10;;;;;;;16.01;67.89;98887.81;1709225;80;21080;-44
2021/08/27 00:04:48;;;;;;;2.67;1.95;;;;;;;15.93;67.94;98888.27;1751210;80;21630;-44
2021/08/27 00:07:15;;;;;;;2.25;2.05;;;;;;;15.91;68.11;98892.80;1675197;85;21084;-44
2021/08/27 00:09:42;;;;;;;3.60;2.30;;;;;;;15.95;68.13;98909.16;1679798;84;21009;-44
2021/08/27 00:12:09;;;;;;;4.45;2.12;;;;;;;15.95;68.06;98908.56;1745637;80;21040;-44
2021/08/27 00:14:36;;;;;;;6.47;2.30;;;;;;;15.95;67.96;98909.93;1752579;80;21135;-43
2021/08/27 00:17:03;;;;;;;6.10;2.40;;;;;;;15.93;67.81;98911.50;1729592;80;21041;-44
2021/08/27 00:19:31;;;;;;;3.05;2.17;;;;;;;15.84;67.90;98911.20;1755340;80;20949;-44
2021/08/27 00:21:57;;;;;;;6.50;2.40;;;;;;;15.78;67.89;98919.68;1758585;80;21554;-44
2021/08/27 00:24:24;;;;;;;10.45;2.30;;;;;;;15.74;67.99;98920.28;1761145;80;21044;-43
2021/08/27 00:26:51;;;;;;;11.30;2.35;;;;;;;15.75;68.04;98925.94;1735367;81;21983;-44
2021/08/27 00:29:17;;;;;;;19.87;2.55;;;;;;;15.74;68.03;98922.42;1758598;80;21053;-44
2021/08/27 00:31:44;;;;;;;14.10;2.90;;;;;;;15.67;68.11;98925.23;1756139;80;21024;-43
2021/08/27 00:34:11;;;;;;;7.35;2.80;;;;;;;15.61;68.35;98920.01;1776417;80;20983;-44
2021/08/27 00:36:38;;;;;;;4.90;2.40;;;;;;;15.64;68.62;98923.29;1778117;80;21299;-43
2021/08/27 00:39:05;;;;;;;11.00;2.77;;;;;;;15.70;68.49;98925.78;1693668;83;21103;-44
2021/08/27 00:41:31;;;;;;;9.93;2.87;;;;;;;15.76;68.24;98919.30;1691257;84;20964;-44
2021/08/27 00:43:57;;;;;;;7.80;3.02;;;;;;;15.71;68.32;98925.97;1698530;83;20956;-44
2021/08/27 00:46:24;;;;;;;21.30;2.80;;;;;;;15.70;68.44;98926.37;1691231;84;21047;-44
2021/08/27 00:48:50;;;;;;;6.40;2.98;;;;;;;15.68;68.53;98923.28;1703732;83;21530;-43
2021/08/27 00:51:17;;;;;;;4.72;2.50;;;;;;;15.69;68.55;98922.86;1701678;83;21794;-43
2021/08/27 00:53:43;;;;;;;7.37;3.22;;;;;;;15.72;68.40;98924.80;1688635;84;21062;-44
2021/08/27 00:56:11;;;;;;;7.35;3.22;;;;;;;15.72;68.75;98919.33;1691280;84;21082;-44
2021/08/27 00:58:37;;;;;;;21.50;3.20;;;;;;;15.77;68.95;98918.13;1695994;83;21493;-43
2021/08/27 01:01:04;;;;;;;29.67;3.33;;;;;;;15.79;68.88;98925.31;1694586;83;21103;-44
2021/08/27 01:03:30;;;;;;;18.05;3.55;;;;;;;15.77;68.80;98921.63;1700744;82;21152;-44
2021/08/27 01:06:08;;;;;;;14.23;3.33;;;;;;;15.67;68.74;98923.87;1719323;83;21031;-43
2021/08/27 01:08:43;;;;;;;13.48;2.90;;;;;;;15.60;68.75;98931.52;1720232;83;21609;-44
2021/08/27 01:11:30;;;;;;;15.85;3.08;;;;;;;15.56;68.61;98932.73;1714272;82;21042;-43
2021/08/27 01:14:05;;;;;;;17.05;2.80;;;;;;;15.46;68.74;98937.66;1726397;82;21032;-44
2021/08/27 01:16:44;;;;;;;8.98;2.45;;;;;;;15.31;68.85;98933.47;1687471;83;21291;-44
2021/08/27 01:19:43;;;;;;;15.83;2.30;;;;;;;15.12;69.28;98934.19;1733315;82;21004;-44
2021/08/27 01:22:32;;;;;;;10.73;2.60;;;;;;;14.98;69.85;98939.73;1753790;80;21525;-43
2021/08/27 01:24:59;;;;;;;3.07;2.40;;;;;;;14.89;70.29;98931.21;1713139;83;21514;-44
2021/08/27 01:27:26;;;;;;;15.15;2.67;;;;;;;14.81;70.69;98927.56;1714968;83;21017;-44
2021/08/27 01:30:09;;;;;;;13.78;2.72;;;;;;;14.70;70.81;98928.97;1749273;81;21132;-44
2021/08/27 01:32:47;;;;;;;22.02;3.27;;;;;;;14.64;71.12;98929.19;1755524;80;21175;-44
2021/08/27 01:35:15;;;;;;;6.28;2.80;;;;;;;14.56;71.42;98927.09;1766552;80;21494;-43
2021/08/27 01:37:45;;;;;;;12.15;3.20;;;;;;;14.59;71.64;98922.77;1752328;80;20985;-44
2021/08/27 01:40:12;;;;;;;15.30;3.00;;;;;;;14.65;71.67;98916.52;1784973;80;20985;-44
2021/08/27 01:42:39;;;;;;;16.93;3.10;;;;;;;14.71;71.75;98905.97;1728854;80;21118;-43
2021/08/27 01:45:07;;;;;;;22.35;3.08;;;;;;;14.75;71.69;98903.41;1732969;80;21024;-44
2021/08/27 01:47:34;;;;;;;5.60;2.27;;;;;;;14.81;71.74;98907.09;1784876;80;20968;-43
2021/08/27 01:50:01;;;;;;;15.65;2.87;;;;;;;14.88;71.55;98907.03;1741069;80;21016;-43
2021/08/27 01:52:27;;;;;;;18.40;2.60;;;;;;;14.97;71.26;98906.00;1757658;80;20990;-44
2021/08/27 01:54:56;;;;;;;23.22;2.70;;;;;;;14.98;70.99;98904.25;1753132;80;21211;-44
2021/08/27 01:57:24;;;;;;;20.20;2.70;;;;;;;14.98;70.98;98906.20;1764961;80;20914;-43
2021/08/27 01:59:51;;;;;;;13.80;2.17;;;;;;;14.96;71.11;98909.31;1754723;80;21075;-43
2021/08/27 02:02:18;;;;;;;19.65;2.85;;;;;;;14.92;70.91;98909.93;1779021;80;20997;-44
2021/08/27 02:04:48;;;;;;;5.22;2.72;;;;;;;14.81;71.01;98916.64;1763893;80;21067;-43
2021/08/27 02:07:17;;;;;;;11.85;2.60;;;;;;;14.73;71.09;98925.44;1760912;80;21053;-43
2021/08/27 02:09:44;;;;;;;10.98;2.67;;;;;;;14.68;71.45;98926.63;1739994;81;21602;-43
2021/08/27 02:12:10;;;;;;;20.60;2.65;;;;;;;14.69;71.75;98924.09;1727958;80;21041;-43
2021/08/27 02:14:39;;;;;;;11.38;2.67;;;;;;;14.72;71.65;98927.38;1741388;80;21520;-44
2021/08/27 02:17:06;;;;;;;8.83;2.50;;;;;;;14.72;71.69;98930.70;1748975;80;21045;-44
2021/08/27 02:19:34;;;;;;;6.92;2.45;;;;;;;14.70;71.69;98928.97;1776554;80;22119;-44
2021/08/27 02:22:01;;;;;;;11.38;3.08;;;;;;;14.78;71.72;98933.20;1755372;80;21004;-44
2021/08/27 02:24:40;;;;;;;22.98;3.02;;;;;;;14.86;71.60;98932.02;1740139;80;20934;-44
2021/08/27 02:27:07;;;;;;;21.77;2.95;;;;;;;14.92;71.59;98935.08;1699312;84;21024;-43
2021/08/27 02:29:38;;;;;;;17.77;3.20;;;;;;;14.94;71.58;98934.89;1704615;84;21550;-43
2021/08/27 02:32:06;;;;;;;13.53;2.80;;;;;;;14.92;71.36;98943.27;1761582;80;22031;-43
2021/08/27 02:34:34;;;;;;;10.95;3.00;;;;;;;14.86;71.52;98947.61;1757738;80;21009;-44
2021/08/27 02:37:01;;;;;;;20.10;2.65;;;;;;;14.88;71.46;98955.58;1766156;80;21033;-44
2021/08/27 02:39:28;;;;;;;16.40;2.90;;;;;;;14.90;71.62;98957.92;1750855;80;21002;-44
2021/08/27 02:41:54;;;;;;;25.55;2.85;;;;;;;14.89;71.63;98952.27;1756406;80;21009;-43
2021/08/27 02:44:21;;;;;;;18.23;2.50;;;;;;;14.85;71.78;98959.11;1742644;80;21099;-44
2021/08/27 02:46:49;;;;;;;10.58;2.00;;;;;;;14.85;71.93;98967.30;1758623;80;21023;-43
2021/08/27 02:49:15;;;;;;;19.45;2.42;;;;;;;14.89;71.71;98963.18;1779439;80;21025;-43
2021/08/27 02:52:09;;;;;;;31.02;2.30;;;;;;;14.85;71.62;98970.03;1773393;80;21025;-44
2021/08/27 02:55:05;;;;;;;24.35;2.37;;;;;;;14.74;71.90;98971.44;1759299;79;21072;-44
2021/08/27 02:57:45;;;;;;;10.93;2.02;;;;;;;14.67;72.15;98978.27;1746094;80;21119;-43
2021/08/27 03:00:13;;;;;;;5.97;2.35;;;;;;;14.65;72.14;98979.85;1736784;80;21076;-43
2021/08/27 03:02:40;;;;;;;13.22;2.47;;;;;;;14.66;72.09;98978.10;1772337;80;20971;-43
2021/08/27 03:05:21;;;;;;;8.05;2.40;;;;;;;14.66;72.11;98980.05;1758049;80;21046;-43
2021/08/27 03:08:00;;;;;;;11.15;2.77;;;;;;;14.65;72.00;98983.36;1696033;84;21017;-43
2021/08/27 03:10:45;;;;;;;6.70;2.70;;;;;;;14.63;71.99;98988.42;1659376;84;21071;-43
2021/08/27 03:13:18;;;;;;;6.30;3.22;;;;;;;14.59;71.85;98987.66;1691722;84;21538;-43
2021/08/27 03:15:51;;;;;;;8.05;3.40;;;;;;;14.62;72.06;98984.13;1681810;85;21020;-44
2021/08/27 03:18:32;;;;;;;9.93;3.75;;;;;;;14.66;72.29;98981.41;1757240;80;20969;-44
2021/08/27 03:21:28;;;;;;;21.05;4.08;;;;;;;14.70;72.68;98980.23;1780204;80;21073;-44
2021/08/27 03:24:03;;;;;;;5.45;3.55;;;;;;;14.71;72.57;98987.25;1763368;80;22211;-44
2021/08/27 03:26:31;;;;;;;15.20;3.70;;;;;;;14.70;72.63;98991.72;1753138;80;21069;-44
2021/08/27 03:29:02;;;;;;;17.65;3.58;;;;;;;14.78;72.65;98990.52;1753295;80;21539;-44
2021/08/27 03:31:29;;;;;;;23.60;3.60;;;;;;;14.85;72.62;98997.32;1750355;81;21029;-44
2021/08/27 03:33:55;;;;;;;25.97;3.20;;;;;;;14.91;72.64;98998.44;1762716;80;21559;-44
2021/08/27 03:36:30;;;;;;;13.03;3.10;;;;;;;14.96;72.65;98995.30;1728046;80;21152;-44
2021/08/27 03:38:59;;;;;;;9.15;2.80;;;;;;;15.04;72.62;98997.42;1748250;80;21069;-44
2021/08/27 03:41:31;;;;;;;17.57;3.12;;;;;;;15.13;72.12;99000.50;1736663;80;21028;-44
2021/08/27 03:43:59;;;;;;;25.27;2.37;;;;;;;15.18;71.80;99004.17;1743286;81;21617;-44
2021/08/27 03:46:26;;;;;;;22.58;2.70;;;;;;;15.20;71.82;98998.49;1764814;81;20981;-44
2021/08/27 03:48:52;;;;;;;36.30;2.42;;;;;;;15.22;71.67;99002.98;1754404;80;21173;-44
2021/08/27 03:51:19;;;;;;;10.00;2.30;;;;;;;15.21;71.46;98998.69;1743001;80;22182;-44
2021/08/27 03:53:47;;;;;;;21.62;2.60;;;;;;;15.17;71.69;98999.30;1750629;81;20967;-44
2021/08/27 03:56:14;;;;;;;13.62;2.45;;;;;;;15.23;71.65;99002.39;1705808;83;21519;-44
2021/08/27 03:58:41;;;;;;;15.65;2.20;;;;;;;15.30;71.84;99001.59;1711712;83;21558;-44
2021/08/27 04:01:08;;;;;;;25.50;2.33;;;;;;;15.31;71.74;98999.80;1711306;82;21076;-44
2021/08/27 04:03:35;;;;;;;8.55;2.05;;;;;;;15.34;71.81;98996.88;1709826;82;20999;-44
2021/08/27 04:06:09;;;;;;;13.93;1.90;;;;;;;15.39;71.53;99001.92;1703673;82;21550;-44
2021/08/27 04:08:41;;;;;;;25.50;2.62;;;;;;;15.33;71.38;98998.05;1705959;83;21318;-44
2021/08/27 04:11:11;;;;;;;15.10;2.35;;;;;;;15.25;71.59;98997.91;1708407;83;21566;-44
2021/08/27 04:13:38;;;;;;;15.53;2.40;;;;;;;15.18;71.86;99000.86;1701327;83;21188;-44
2021/08/27 04:16:05;;;;;;;18.87;2.30;;;;;;;15.12;72.02;99006.55;1708188;83;20966;-44
2021/08/27 04:18:32;;;;;;;16.87;2.50;;;;;;;15.13;72.07;99009.47;1706964;84;20954;-44
2021/08/27 04:21:00;;;;;;;6.78;1.80;;;;;;;15.18;72.04;99008.27;1706715;84;21028;-44
2021/08/27 04:23:27;;;;;;;22.25;2.02;;;;;;;15.20;72.11;99014.12;1696757;82;21083;-44
2021/08/27 04:25:54;;;;;;;33.53;2.60;;;;;;;15.14;72.31;99023.91;1702992;83;21808;-44
2021/08/27 04:28:20;;;;;;;15.48;2.27;;;;;;;15.10;72.35;99028.61;1702427;83;21017;-44
2021/08/27 04:30:49;;;;;;;17.70;2.58;;;;;;;15.08;72.54;99022.17;1703096;83;21028;-44
2021/08/27 04:33:15;;;;;;;11.00;2.67;;;;;;;15.13;72.42;99020.39;1702198;84;21070;-44
2021/08/27 04:35:42;;;;;;;14.03;3.02;;;;;;;15.18;72.58;99019.20;1706806;84;21045;-44
2021/08/27 04:38:08;;;;;;;11.73;2.83;;;;;;;15.20;72.74;99020.34;1707035;84;21123;-44
2021/08/27 04:40:36;;;;;;;7.28;2.60;;;;;;;15.22;72.66;99016.64;1706901;83;21596;-44
2021/08/27 04:43:02;;;;;;;5.00;2.50;;;;;;;15.27;72.58;99014.66;1704260;83;21047;-44
2021/08/27 04:45:29;;;;;;;7.37;2.65;;;;;;;15.34;72.23;99018.73;1698505;83;21030;-44
2021/08/27 04:47:55;;;;;;;12.15;2.90;;;;;;;15.32;71.97;99019.11;1700568;84;21526;-44
2021/08/27 04:50:22;;;;;;;6.85;2.92;;;;;;;15.23;72.27;99022.30;1702531;82;21201;-44
2021/08/27 04:52:49;;;;;;;5.22;2.62;;;;;;;15.18;72.68;99017.25;1699793;83;21059;-44
2021/08/27 04:55:16;;;;;;;4.83;3.00;;;;;;;15.23;72.69;99016.83;1706841;82;21025;-44
2021/08/27 04:57:42;;;;;;;9.60;3.10;;;;;;;15.36;72.66;99016.36;1718894;82;20961;-44
2021/08/27 05:00:10;;;;;;;16.05;3.50;;;;;;;15.47;72.62;99007.52;1710194;82;21100;-44
2021/08/27 05:02:38;;;;;;;10.58;3.37;;;;;;;15.55;72.49;99013.92;1707792;82;21124;-44
2021/08/27 05:05:06;;;;;;;6.75;2.98;;;;;;;15.56;72.36;99014.70;1707875;83;21060;-44
2021/08/27 05:07:33;;;;;;;12.10;3.27;;;;;;;15.60;72.16;99008.63;1707405;82;21552;-44
2021/08/27 05:10:00;;;;;;;5.12;2.62;;;;;;;15.63;72.12;99011.34;1707493;84;21086;-44
2021/08/27 05:12:27;;;;;;;13.88;3.40;;;;;;;15.68;71.89;99010.73;1707319;84;21034;-44
2021/08/27 05:14:54;;;;;;;10.78;3.20;;;;;;;15.62;71.87;99002.17;1697064;82;21108;-44
2021/08/27 05:17:21;;;;;;;3.80;3.35;;;;;;;15.55;71.93;99004.95;1706233;82;21494;-44
2021/08/27 05:19:48;;;;;;;4.85;3.67;;;;;;;15.46;71.98;98996.39;1701579;83;20965;-44
2021/08/27 05:22:18;;;;;;;5.60;3.55;;;;;;;15.47;72.56;99001.47;1753595;81;21572;-44
2021/08/27 05:24:45;;;;;;;17.00;4.08;;;;;;;15.55;72.69;99003.58;1735528;80;21021;-44
2021/08/27 05:27:11;;;;;;;6.30;4.22;;;;;;;15.57;72.66;99001.23;1706921;84;21161;-44
2021/08/27 05:29:38;;;;;;;4.80;4.30;;;;;;;15.54;72.74;99008.27;1707552;84;21515;-44
2021/08/27 05:32:07;;;;;;;7.05;3.92;;;;;;;15.57;73.01;99002.60;1707301;84;20985;-44
2021/08/27 05:34:33;;;;;;;3.20;2.93;;;;;;;15.69;72.95;99010.30;1707458;84;20989;-44
2021/08/27 05:37:00;;;;;;;7.10;5.03;;;;;;;15.77;72.71;99006.36;1707545;84;20941;-44
2021/08/27 05:39:28;;;;;;;8.88;4.83;;;;;;;15.75;73.00;98999.73;1695810;84;21191;-44
2021/08/27 05:41:56;;;;;;;5.28;3.92;;;;;;;15.75;73.25;99002.46;1717696;80;21381;-44
2021/08/27 05:44:22;;;;;;;5.95;4.42;;;;;;;15.83;73.31;99005.34;1743158;80;21042;-44
2021/08/27 05:46:49;;;;;;;7.37;5.20;;;;;;;15.92;72.99;99003.70;1742357;80;21041;-44
2021/08/27 05:49:16;;;;;;;7.50;5.67;;;;;;;15.99;73.07;99006.36;1721401;80;21086;-44
2021/08/27 05:51:43;;;;;;;5.85;5.12;;;;;;;16.04;73.11;99010.03;1731804;80;21985;-44
2021/08/27 05:54:10;;;;;;;5.78;4.75;;;;;;;16.08;72.91;99002.56;1747595;80;21030;-44
2021/08/27 05:56:37;;;;;;;6.28;5.10;;;;;;;16.15;73.29;99006.42;1739521;82;20989;-44
2021/08/27 05:59:03;;;;;;;6.12;5.17;;;;;;;16.28;73.10;99006.09;1742872;82;21010;-44
2021/08/27 06:01:30;;;;;;;5.87;5.28;;;;;;;16.39;72.93;99010.87;1742138;80;21045;-44
2021/08/27 06:03:56;;;;;;;7.97;6.12;;;;;;;16.52;72.82;99007.22;1743493;81;21151;-44
2021/08/27 06:06:23;;;;;;;6.95;5.75;;;;;;;16.59;72.41;99005.03;1735366;81;21039;-44
2021/08/27 06:08:49;;;;;;;7.65;6.30;;;;;;;16.69;72.26;99008.24;1742919;81;21059;-44
2021/08/27 06:11:16;;;;;;;7.05;5.97;;;;;;;16.86;72.34;99015.45;1738452;81;21034;-44
2021/08/27 06:13:43;;;;;;;7.00;5.67;;;;;;;17.01;72.12;99016.06;1746533;80;21546;-44
2021/08/27 06:16:10;;;;;;;8.50;6.28;;;;;;;17.09;71.94;99015.39;1741205;81;21124;-44
2021/08/27 06:18:37;;;;;;;6.50;5.87;;;;;;;17.08;71.54;99012.47;1742711;82;20956;-44
2021/08/27 06:21:03;;;;;;;8.05;5.17;;;;;;;17.10;71.63;99015.55;1747156;81;21030;-44
2021/08/27 06:23:30;;;;;;;6.90;6.20;;;;;;;17.17;71.33;99014.10;1742683;82;21120;-44
2021/08/27 06:25:57;;;;;;;6.87;6.28;;;;;;;17.25;71.49;99008.70;1742667;82;21292;-44
2021/08/27 06:28:23;;;;;;;7.12;6.42;;;;;;;17.31;71.64;99016.06;1742680;82;21127;-44
2021/08/27 06:31:43;;;;;;;6.22;5.62;;;;;;;17.45;71.51;99017.81;1784038;79;22714;-43
2021/08/27 06:34:10;;;;;;;5.97;5.37;;;;;;;17.50;71.58;99014.61;1757032;80;20934;-44
2021/08/27 06:36:37;;;;;;;6.92;6.08;;;;;;;17.66;71.37;99024.40;1757338;80;21110;-43
2021/08/27 06:39:03;;;;;;;6.53;5.92;;;;;;;17.83;71.02;99023.93;1757830;80;21618;-43
2021/08/27 06:41:31;;;;;;;7.30;5.97;;;;;;;17.95;70.70;99014.34;1769753;80;20938;-44
2021/08/27 06:43:58;;;;;;;6.10;5.50;;;;;;;18.07;70.53;99026.09;1765009;80;20992;-44
2021/08/27 06:46:26;;;;;;;7.12;6.20;;;;;;;18.21;70.22;99027.22;1765642;80;21664;-44
2021/08/27 06:48:53;;;;;;;8.13;6.53;;;;;;;18.37;69.68;99024.59;1730278;81;21135;-44
2021/08/27 06:51:20;;;;;;;7.78;6.42;;;;;;;18.51;68.97;99025.70;1692146;83;21010;-44
2021/08/27 06:53:46;;;;;;;7.50;6.35;;;;;;;18.59;68.77;99016.16;1712364;82;21004;-44
2021/08/27 06:56:13;;;;;;;8.50;5.90;;;;;;;18.72;68.44;99019.06;1712194;82;21055;-44
2021/08/27 06:58:40;;;;;;;6.40;5.20;;;;;;;18.86;68.43;99018.78;1709704;82;21559;-44
2021/08/27 07:01:07;;;;;;;7.08;5.65;;;;;;;19.01;68.20;99018.67;1703445;83;21827;-44
2021/08/27 07:03:34;;;;;;;6.28;5.40;;;;;;;19.20;67.66;99021.22;1696864;83;21238;-44
2021/08/27 07:06:00;;;;;;;6.53;5.28;;;;;;;19.33;67.34;99015.23;1697787;84;21029;-44
2021/08/27 07:08:27;;;;;;;6.00;5.40;;;;;;;19.44;67.00;99021.90;1709074;83;21088;-44
2021/08/27 07:10:55;;;;;;;8.13;5.30;;;;;;;19.51;66.00;99018.37;1717007;83;20961;-44
2021/08/27 07:13:21;;;;;;;8.45;5.45;;;;;;;19.57;65.20;99023.38;1724090;82;21172;-44
2021/08/27 07:15:50;;;;;;;5.75;5.03;;;;;;;19.58;64.70;99028.45;1711383;83;21484;-44
2021/08/27 07:18:17;;;;;;;5.80;4.95;;;;;;;19.60;64.76;99025.28;1728953;81;20996;-44
2021/08/27 07:20:44;;;;;;;5.83;5.22;;;;;;;19.63;64.74;99022.45;1725733;82;21035;-44
2021/08/27 07:23:13;;;;;;;7.72;5.70;;;;;;;19.64;64.04;99024.59;1740069;82;21085;-44
2021/08/27 07:25:39;;;;;;;6.78;5.00;;;;;;;19.39;64.11;98983.89;1693268;83;21112;-44
2021/08/27 07:28:06;;;;;;;7.62;4.80;;;;;;;19.73;64.16;99026.14;1723252;81;21028;-44
2021/08/27 07:30:36;;;;;;;5.15;4.40;;;;;;;19.84;63.87;99025.30;1719650;82;21013;-44
2021/08/27 07:33:03;;;;;;;5.53;4.72;;;;;;;19.95;63.80;99038.18;1715287;82;21706;-44
2021/08/27 07:35:30;;;;;;;6.00;4.28;;;;;;;20.05;63.13;99035.00;1750395;80;20965;-44
2021/08/27 07:37:56;;;;;;;4.90;4.05;;;;;;;20.18;62.65;99035.27;1761338;80;21179;-44
2021/08/27 07:40:23;;;;;;;6.22;4.40;;;;;;;20.40;62.45;99039.64;1753172;80;21540;-44
2021/08/27 07:42:50;;;;;;;7.35;4.42;;;;;;;20.46;60.94;99037.92;1751618;80;20971;-44
2021/08/27 07:45:16;;;;;;;5.58;4.33;;;;;;;20.43;61.13;99041.52;1743501;80;21364;-44
2021/08/27 07:47:44;;;;;;;5.65;3.42;;;;;;;20.45;61.04;99037.74;1743269;82;21074;-44
2021/08/27 07:50:11;;;;;;;4.17;3.62;;;;;;;20.57;60.57;99038.42;1767924;80;21164;-44
2021/08/27 07:52:38;;;;;;;4.90;3.65;;;;;;;20.65;60.31;99039.77;1767352;80;20981;-44
2021/08/27 07:55:06;;;;;;;4.50;3.60;;;;;;;20.66;59.98;99046.05;1762948;80;20970;-44
2021/08/27 07:57:35;;;;;;;4.85;3.35;;;;;;;20.71;59.46;99052.41;1757316;80;21013;-44
2021/08/27 08:00:04;;;;;;;7.23;3.37;;;;;;;20.77;59.51;99046.52;1750650;80;21488;-44
2021/08/27 08:02:33;;;;;;;5.37;2.90;;;;;;;20.65;59.47;99016.34;1750457;80;21006;-44
2021/08/27 08:05:00;;;;;;;3.98;2.95;;;;;;;20.98;58.66;99057.55;1752623;80;20985;-44
2021/08/27 08:07:26;;;;;;;4.05;3.17;;;;;;;20.99;58.18;99049.47;1731654;80;21035;-44
2021/08/27 08:09:53;;;;;;;3.87;2.80;;;;;;;20.96;58.34;99053.85;1717733;83;21072;-44
2021/08/27 08:12:20;;;;;;;4.30;3.05;;;;;;;20.98;57.73;99056.95;1705560;83;21132;-44
2021/08/27 08:14:46;;;;;;;4.67;3.00;;;;;;;21.01;56.28;99049.81;1716605;82;21357;-44
2021/08/27 08:17:13;;;;;;;3.42;3.12;;;;;;;21.01;56.43;99049.18;1710792;82;21001;-44
2021/08/27 08:19:39;;;;;;;4.40;3.15;;;;;;;21.03;56.67;99052.28;1709741;82;21024;-44
2021/08/27 08:22:06;;;;;;;4.15;3.12;;;;;;;21.16;56.84;99052.34;1723142;82;20999;-44
2021/08/27 08:24:33;;;;;;;3.83;3.10;;;;;;;21.35;56.42;99047.87;1708176;82;21036;-44
2021/08/27 08:26:59;;;;;;;4.58;3.50;;;;;;;21.52;56.07;99053.45;1694311;82;21120;-44
2021/08/27 08:29:26;;;;;;;5.17;3.37;;;;;;;21.67;55.54;99060.08;1705318;82;21068;-44
2021/08/27 08:31:52;;;;;;;3.50;3.20;;;;;;;21.80;54.27;99053.94;1734442;81;21020;-44
2021/08/27 08:34:20;;;;;;;5.60;3.27;;;;;;;21.92;53.06;99046.88;1726432;81;21006;-44
2021/08/27 08:36:46;;;;;;;3.55;3.05;;;;;;;22.09;52.84;99054.61;1734744;81;21788;-44
2021/08/27 08:39:13;;;;;;;4.35;3.27;;;;;;;22.28;52.68;99050.03;1748065;81;21851;-44
2021/08/27 08:41:40;;;;;;;4.42;3.50;;;;;;;22.47;51.59;99055.12;1744031;82;21502;-44
2021/08/27 08:44:07;;;;;;;3.52;3.22;;;;;;;22.57;50.30;99060.89;1750140;82;21060;-44
2021/08/27 08:46:33;;;;;;;4.37;3.40;;;;;;;22.57;50.58;99058.73;1743212;81;20977;-44
2021/08/27 08:49:00;;;;;;;4.62;3.95;;;;;;;22.60;49.74;99057.25;1740355;81;21011;-44
2021/08/27 08:51:27;;;;;;;6.12;3.72;;;;;;;22.65;49.52;99059.44;1742364;81;21773;-44
2021/08/27 08:53:54;;;;;;;5.95;3.20;;;;;;;22.64;49.40;99060.66;1751208;81;20976;-44
2021/08/27 08:56:21;;;;;;;5.92;3.60;;;;;;;22.60;48.92;99060.62;1754121;81;20945;-44
2021/08/27 08:58:48;;;;;;;3.92;3.50;;;;;;;22.52;48.42;99065.59;1741276;81;20991;-44
2021/08/27 09:01:19;;;;;;;4.37;3.80;;;;;;;22.49;48.61;99066.50;1751006;81;20957;-44
2021/08/27 09:03:46;;;;;;;6.17;3.70;;;;;;;22.48;49.35;99060.81;1751214;82;21825;-44
2021/08/27 09:06:14;;;;;;;4.60;3.80;;;;;;;22.46;48.97;99069.53;1750924;82;20989;-44
2021/08/27 09:08:46;;;;;;;4.90;3.50;;;;;;;22.43;47.78;99075.97;1751168;82;21020;-44
2021/08/27 09:11:24;;;;;;;5.15;4.03;;;;;;;22.33;47.40;99071.56;1721742;81;21101;-44
2021/08/27 09:13:57;;;;;;;5.30;3.60;;;;;;;22.27;48.53;99067.81;1726988;81;21522;-44
2021/08/27 09:16:31;;;;;;;4.50;3.90;;;;;;;22.33;48.38;99068.80;1747190;82;21109;-44
2021/08/27 09:18:59;;;;;;;5.35;3.80;;;;;;;22.41;47.30;99072.86;1750356;81;21025;-44
2021/08/27 09:21:47;;;;;;;5.95;3.67;;;;;;;22.40;47.68;99070.56;1739269;81;21047;-43
2021/08/27 09:24:25;;;;;;;5.67;3.75;;;;;;;22.29;48.10;99070.92;1686161;85;21036;-44
2021/08/27 09:27:00;;;;;;;4.80;3.72;;;;;;;22.28;47.48;99076.27;1728286;83;21512;-44
2021/08/27 09:29:43;;;;;;;5.30;4.10;;;;;;;22.39;47.58;99074.54;1719580;83;21103;-44
2021/08/27 09:32:29;;;;;;;7.37;3.90;;;;;;;22.56;47.05;99071.02;1712368;83;20991;-45
2021/08/27 09:35:15;;;;;;;4.20;3.55;;;;;;;22.77;46.30;99066.16;1723634;83;20942;-44
2021/08/27 09:37:44;;;;;;;5.20;4.25;;;;;;;23.04;45.51;99076.05;1711673;82;21118;-45
2021/08/27 09:40:18;;;;;;;4.17;3.70;;;;;;;23.07;44.70;99075.14;1708070;82;21097;-45
2021/08/27 09:42:50;;;;;;;5.50;4.20;;;;;;;22.90;45.39;99078.69;1722717;82;21108;-45
2021/08/27 09:45:20;;;;;;;4.78;4.05;;;;;;;22.84;45.95;99078.35;1730567;82;21009;-45
2021/08/27 09:48:02;;;;;;;5.12;3.77;;;;;;;22.92;45.63;99076.87;1713860;82;21084;-45
2021/08/27 09:50:31;;;;;;;5.50;4.20;;;;;;;23.13;45.24;99072.57;1707745;82;21033;-45
2021/08/27 09:53:09;;;;;;;5.37;3.50;;;;;;;23.34;45.09;99076.69;1716051;82;21000;-45
2021/08/27 09:55:38;;;;;;;5.95;3.70;;;;;;;23.56;44.59;99076.69;1730598;82;21153;-45
2021/08/27 09:58:12;;;;;;;4.65;3.67;;;;;;;23.60;43.49;99080.70;1728976;82;21041;-45
2021/08/27 10:00:41;;;;;;;4.53;3.90;;;;;;;23.59;44.13;99072.23;1701884;82;21064;-45
2021/08/27 10:03:24;;;;;;;5.40;3.67;;;;;;;23.62;44.16;99077.65;1705540;82;21000;-45
2021/08/27 10:05:53;;;;;;;5.20;4.03;;;;;;;23.72;42.81;99075.05;1729702;82;21042;-45
2021/08/27 10:08:25;;;;;;;5.20;4.10;;;;;;;23.86;43.05;99077.13;1767795;80;21087;-45
2021/08/27 10:10:57;;;;;;;4.40;3.95;;;;;;;24.06;42.52;99078.25;1721792;80;21005;-45
2021/08/27 10:13:24;;;;;;;6.00;4.03;;;;;;;24.30;43.20;99071.59;1719206;82;21081;-45
2021/08/27 10:15:53;;;;;;;5.37;4.50;;;;;;;24.53;41.40;99064.08;1683388;85;20966;-45
2021/08/27 10:18:19;;;;;;;5.28;3.80;;;;;;;24.74;41.64;99068.55;1722115;80;21075;-45
2021/08/27 10:20:47;;;;;;;5.92;3.58;;;;;;;24.98;41.37;99063.95;1713837;80;21091;-45
2021/08/27 10:23:17;;;;;;;5.10;4.17;;;;;;;25.20;41.64;99057.58;1711294;82;21562;-45
2021/08/27 10:25:44;;;;;;;5.22;3.95;;;;;;;25.47;39.09;99056.11;1709460;82;21014;-43
2021/08/27 10:28:11;;;;;;;5.10;4.47;;;;;;;25.68;40.64;99060.55;1650129;86;21406;-44
2021/08/27 10:30:58;;;;;;;4.60;4.10;;;;;;;26.02;39.58;99050.97;1666002;85;21598;-44
2021/08/27 10:33:46;;;;;;;5.55;3.65;;;;;;;26.27;37.56;99050.55;1722090;82;21864;-44
2021/08/27 10:36:27;;;;;;;6.17;4.10;;;;;;;26.35;37.06;99052.49;1709947;82;21914;-44
2021/08/27 10:38:55;;;;;;;4.67;3.77;;;;;;;26.40;37.03;99042.73;1705923;82;20995;-43
2021/08/27 10:41:39;;;;;;;3.87;3.33;;;;;;;26.53;37.04;99037.68;1699436;82;21611;-42
2021/08/27 10:44:10;;;;;;;5.25;3.98;;;;;;;26.74;36.27;99035.20;1706032;82;21082;-42
2021/08/27 10:46:52;;;;;;;4.58;3.72;;;;;;;26.95;36.48;99029.79;1711892;82;21177;-42
2021/08/27 10:49:43;;;;;;;5.17;3.92;;;;;;;27.11;35.75;99028.68;1700669;82;21044;-42
2021/08/27 10:52:32;;;;;;;5.67;3.75;;;;;;;27.08;36.11;99028.88;1703724;82;21521;-42
2021/08/27 10:55:12;;;;;;;5.17;4.12;;;;;;;27.10;35.64;99027.16;1714284;82;21541;-42
2021/08/27 10:58:00;;;;;;;5.28;3.60;;;;;;;27.26;37.03;99025.89;1708983;81;21081;-42
2021/08/27 11:00:41;;;;;;;5.30;3.85;;;;;;;27.57;33.93;99029.59;1720383;82;21131;-42
2021/08/27 11:03:09;;;;;;;5.17;3.60;;;;;;;27.49;34.95;99027.84;1680956;83;20963;-42
2021/08/27 11:05:47;;;;;;;6.92;4.12;;;;;;;27.56;36.15;99027.44;1714098;82;21529;-42
2021/08/27 11:08:28;;;;;;;6.00;3.93;;;;;;;27.86;34.86;99036.50;1730477;82;20910;-43
2021/08/27 11:11:20;;;;;;;4.40;3.58;;;;;;;27.82;34.41;99035.94;1712369;82;21108;-42
2021/08/27 11:13:48;;;;;;;5.03;3.87;;;;;;;27.72;35.13;99042.10;1658603;85;21158;-42
2021/08/27 11:16:24;;;;;;;4.22;3.50;;;;;;;27.67;33.68;99043.55;1706558;82;21605;-43
2021/08/27 11:18:52;;;;;;;5.60;4.00;;;;;;;27.52;33.71;99044.97;1725586;82;20954;-43
2021/08/27 11:21:32;;;;;;;5.33;3.70;;;;;;;27.42;34.32;99035.16;1726102;82;21089;-43
2021/08/27 11:24:17;;;;;;;3.98;3.58;;;;;;;27.33;34.51;99037.28;1732258;82;21034;-43
2021/08/27 11:27:02;;;;;;;5.25;4.03;;;;;;;27.12;33.73;99041.97;1730122;82;21149;-42
2021/08/27 11:29:38;;;;;;;5.25;4.50;;;;;;;26.76;34.41;99052.19;1711091;82;21028;-42
2021/08/27 11:32:31;;;;;;;6.28;4.20;;;;;;;26.32;34.71;99047.89;1725937;81;21294;-43
2021/08/27 11:35:02;;;;;;;5.17;4.30;;;;;;;26.05;35.85;99053.57;1737548;81;20962;-42
2021/08/27 11:37:32;;;;;;;5.75;4.10;;;;;;;26.06;36.96;99043.23;1745770;81;21028;-42
2021/08/27 11:39:59;;;;;;;6.03;4.50;;;;;;;26.32;36.81;99041.56;1688904;84;21145;-43
2021/08/27 11:42:26;;;;;;;4.40;3.72;;;;;;;26.65;37.31;99038.68;1748592;81;20945;-43
2021/08/27 11:45:04;;;;;;;6.67;4.53;;;;;;;27.10;37.16;99026.39;1753044;81;21020;-43
2021/08/27 11:47:43;;;;;;;4.12;3.72;;;;;;;27.60;34.64;99023.05;1685524;85;21615;-43